Time;durP1;ratioP1;P1;durP2;ratioP2;P2;SDS_P1;SDS_P2;PMS_P1;PMS_P2;Temp;Humidity;BMP_temperature;BMP_pressure;BME280_temperature;BME280_humidity;BME280_pressure;Samples;Min_cycle;Max_cycle;Signal;HPM_P1;HPM_P2
2021/12/01 00:01:09;;;;;;;;;;;;;;;21.38;46.88;101435.41;4206569;28;19973;-67
2021/12/01 00:03:10;;;;;;;;;;;;;;;21.36;46.65;101434.88;4198827;28;19916;-71
2021/12/01 00:05:11;;;;;;;;;;;;;;;21.35;46.66;101435.94;4199018;28;19920;-67
2021/12/01 00:07:12;;;;;;;;;;;;;;;21.35;46.44;101435.94;4198636;28;19970;-70
2021/12/01 00:09:13;;;;;;;;;;;;;;;21.35;46.16;101430.38;4199153;28;20346;-67
2021/12/01 00:11:14;;;;;;;;;;;;;;;21.34;46.13;101440.69;4198954;28;19916;-69
2021/12/01 00:13:17;;;;;;;;;;;;;;;21.36;45.98;101446.84;4204972;28;19955;-67
2021/12/01 00:15:18;;;;;;;;;;;;;;;21.37;45.89;101433.75;4231375;28;19919;-68
2021/12/01 00:17:19;;;;;;;;;;;;;;;21.39;45.78;101431.50;4223978;27;19969;-68
2021/12/01 00:19:20;;;;;;;;;;;;;;;21.38;45.66;101429.84;4215565;28;19916;-68
2021/12/01 00:21:21;;;;;;;;;;;;;;;21.38;45.71;101435.41;4215483;28;20011;-68
2021/12/01 00:23:23;;;;;;;;;;;;;;;21.37;45.85;101433.75;4215525;28;20317;-66
2021/12/01 00:25:24;;;;;;;;;;;;;;;21.35;45.86;101419.25;4214708;28;20374;-67
2021/12/01 00:27:25;;;;;;;;;;;;;;;21.33;45.69;101427.03;4215337;28;19916;-66
2021/12/01 00:29:26;;;;;;;;;;;;;;;21.30;45.51;101423.69;4215226;28;19920;-67
2021/12/01 00:31:27;;;;;;;;;;;;;;;21.28;45.36;101430.63;4215292;28;19916;-67
2021/12/01 00:33:28;;;;;;;;;;;;;;;21.25;45.22;101437.53;4215596;28;20362;-67
2021/12/01 00:35:30;;;;;;;;;;;;;;;21.25;45.37;101436.72;4228619;28;19977;-67
2021/12/01 00:37:31;;;;;;;;;;;;;;;21.22;45.15;101446.47;4231959;27;20317;-66
2021/12/01 00:39:32;;;;;;;;;;;;;;;21.23;45.22;101442.56;4229923;28;20439;-67
2021/12/01 00:41:33;;;;;;;;;;;;;;;21.24;45.34;101451.75;4215794;27;20452;-66
2021/12/01 00:43:38;;;;;;;;;;;;;;;21.24;45.17;101455.38;4198219;28;19970;-65
2021/12/01 00:45:46;;;;;;;;;;;;;;;21.26;45.18;101450.38;4199028;28;19967;-67
2021/12/01 00:47:52;;;;;;;;;;;;;;;21.27;44.83;101456.78;4197984;28;19924;-66
2021/12/01 00:49:53;;;;;;;;;;;;;;;21.28;45.10;101453.72;4210037;28;19924;-67
2021/12/01 00:51:54;;;;;;;;;;;;;;;21.29;44.91;101455.38;4215203;28;20371;-66
2021/12/01 00:53:55;;;;;;;;;;;;;;;21.30;44.84;101445.94;4223894;28;19908;-66
2021/12/01 00:55:57;;;;;;;;;;;;;;;21.32;44.70;101448.47;4231980;28;20365;-67
2021/12/01 00:57:58;;;;;;;;;;;;;;;21.34;44.55;101451.00;4219812;28;19953;-68
2021/12/01 00:59:59;;;;;;;;;;;;;;;21.36;44.55;101448.78;4215078;28;19961;-67
2021/12/01 01:02:00;;;;;;;;;;;;;;;21.36;44.13;101438.47;4214945;28;19916;-67
2021/12/01 01:04:01;;;;;;;;;;;;;;;21.38;44.27;101440.97;4214601;28;19962;-62
2021/12/01 01:06:02;;;;;;;;;;;;;;;21.38;44.03;101429.84;4215146;28;19920;-65
2021/12/01 01:08:03;;;;;;;;;;;;;;;21.39;43.98;101425.94;4214220;28;19916;-65
2021/12/01 01:10:17;;;;;;;;;;;;;;;21.40;44.28;101428.47;4224342;28;19920;-66
2021/12/01 01:16:58;;;;;;;;;;;;;;;21.43;43.79;101433.47;4231388;28;19919;-67
2021/12/01 01:19:00;;;;;;;;;;;;;;;21.45;43.94;101438.81;4231867;28;19911;-69
2021/12/01 01:21:02;;;;;;;;;;;;;;;21.45;43.98;101436.03;4231773;28;19916;-67
2021/12/01 01:23:03;;;;;;;;;;;;;;;21.46;43.68;101444.09;4231482;28;19916;-67
2021/12/01 01:25:05;;;;;;;;;;;;;;;21.47;43.97;101451.31;4231274;28;19965;-67
2021/12/01 01:27:07;;;;;;;;;;;;;;;21.48;43.58;101452.16;4233082;28;19969;-67
2021/12/01 01:29:08;;;;;;;;;;;;;;;21.49;43.69;101453.84;4235435;27;19915;-67
2021/12/01 01:31:09;;;;;;;;;;;;;;;21.49;43.75;101451.06;4233184;28;19923;-68
2021/12/01 01:33:10;;;;;;;;;;;;;;;21.50;43.44;101447.16;4235099;28;19961;-65
2021/12/01 01:35:13;;;;;;;;;;;;;;;21.50;43.49;101438.81;4235312;27;20347;-67
2021/12/01 01:37:14;;;;;;;;;;;;;;;21.50;43.59;101442.44;4219821;28;20322;-68
2021/12/01 01:39:15;;;;;;;;;;;;;;;21.52;43.41;101442.16;4213565;28;19920;-66
2021/12/01 01:41:17;;;;;;;;;;;;;;;21.53;43.69;101438.25;4203590;28;19917;-68
2021/12/01 01:43:18;;;;;;;;;;;;;;;21.53;43.61;101439.13;4201383;28;19920;-68
2021/12/01 01:45:19;;;;;;;;;;;;;;;21.54;43.61;101439.94;4215362;28;19973;-71
2021/12/01 01:47:20;;;;;;;;;;;;;;;21.53;43.54;101429.91;4217306;28;19931;-68
2021/12/01 01:49:35;;;;;;;;;;;;;;;21.54;43.48;101428.81;4217581;28;20333;-68
2021/12/01 01:51:37;;;;;;;;;;;;;;;21.55;43.39;101436.03;4217574;28;19962;-68
2021/12/01 01:53:38;;;;;;;;;;;;;;;21.54;43.48;101429.66;4211283;28;19916;-67
2021/12/01 01:55:40;;;;;;;;;;;;;;;21.54;43.26;101434.38;4200821;28;19920;-69
2021/12/01 01:57:43;;;;;;;;;;;;;;;21.55;43.37;101436.03;4200261;28;19917;-67
2021/12/01 01:59:44;;;;;;;;;;;;;;;21.55;43.23;101436.03;4200714;28;19958;-69
2021/12/01 02:01:46;;;;;;;;;;;;;;;21.56;43.48;101432.16;4200950;28;19970;-68
2021/12/01 02:03:48;;;;;;;;;;;;;;;21.56;43.52;101448.84;4200737;28;19942;-70
2021/12/01 02:05:50;;;;;;;;;;;;;;;21.56;43.21;101449.69;4200953;28;20437;-68
2021/12/01 02:07:53;;;;;;;;;;;;;;;21.58;43.11;101446.66;4200542;28;19942;-67
2021/12/01 02:09:54;;;;;;;;;;;;;;;21.59;43.43;101445.53;4200873;28;19916;-69
2021/12/01 02:11:57;;;;;;;;;;;;;;;21.59;42.95;101445.53;4213558;28;19920;-68
2021/12/01 02:13:58;;;;;;;;;;;;;;;21.60;43.22;101449.97;4234508;27;19920;-70
2021/12/01 02:16:00;;;;;;;;;;;;;;;21.61;43.00;101446.09;4234483;27;19968;-68
2021/12/01 02:18:02;;;;;;;;;;;;;;;21.61;42.90;101451.66;4217969;27;20263;-68
2021/12/01 02:20:23;;;;;;;;;;;;;;;21.62;42.97;101453.31;4206935;28;19970;-64
2021/12/01 02:22:24;;;;;;;;;;;;;;;21.62;43.27;101453.31;4200148;28;19916;-65
2021/12/01 02:24:25;;;;;;;;;;;;;;;21.64;43.13;101462.25;4214936;28;19916;-68
2021/12/01 02:26:27;;;;;;;;;;;;;;;21.63;42.87;101460.59;4217669;28;19981;-65
2021/12/01 02:28:29;;;;;;;;;;;;;;;21.64;43.15;101455.84;4217177;28;19970;-68
2021/12/01 02:30:30;;;;;;;;;;;;;;;21.65;43.09;101452.78;4217266;28;19977;-66
2021/12/01 02:32:31;;;;;;;;;;;;;;;21.66;42.80;101448.88;4217989;28;19916;-68
2021/12/01 02:34:38;;;;;;;;;;;;;;;21.67;42.63;101447.78;4217869;28;19942;-68
2021/12/01 02:36:40;;;;;;;;;;;;;;;21.69;42.96;101456.69;4202796;28;19958;-72
2021/12/01 02:38:43;;;;;;;;;;;;;;;21.69;42.89;101445.56;4200038;28;19962;-67
2021/12/01 02:40:45;;;;;;;;;;;;;;;21.70;42.97;101455.56;4200439;28;19917;-65
2021/12/01 02:42:46;;;;;;;;;;;;;;;21.71;42.77;101456.41;4200345;28;19916;-68
2021/12/01 02:44:47;;;;;;;;;;;;;;;21.72;42.69;101458.13;4200514;28;19923;-68
2021/12/01 02:46:48;;;;;;;;;;;;;;;21.73;42.77;101443.91;4198375;28;19927;-70
2021/12/01 02:48:49;;;;;;;;;;;;;;;21.74;42.74;101451.13;4199912;28;19970;-65
2021/12/01 02:50:51;;;;;;;;;;;;;;;21.74;42.43;101459.50;4199897;28;19916;-71
2021/12/01 02:52:54;;;;;;;;;;;;;;;21.76;42.49;101454.50;4200207;28;20367;-63
2021/12/01 02:54:56;;;;;;;;;;;;;;;21.76;42.49;101448.94;4199892;28;19920;-67
2021/12/01 02:56:58;;;;;;;;;;;;;;;21.77;42.51;101445.03;4199601;28;19916;-70
2021/12/01 02:59:00;;;;;;;;;;;;;;;21.77;42.34;101450.59;4199816;28;19916;-71
2021/12/01 03:01:02;;;;;;;;;;;;;;;21.78;42.46;101448.66;4200009;28;20390;-69
2021/12/01 03:03:04;;;;;;;;;;;;;;;21.78;42.32;101468.97;4199620;28;19920;-75
2021/12/01 03:05:06;;;;;;;;;;;;;;;21.79;42.62;101476.22;4200121;28;19946;-73
2021/12/01 03:07:08;;;;;;;;;;;;;;;21.79;42.54;101472.59;4199576;28;20397;-67
2021/12/01 03:09:09;;;;;;;;;;;;;;;21.80;42.39;101472.31;4200133;28;20376;-65
2021/12/01 03:11:10;;;;;;;;;;;;;;;21.80;42.38;101475.09;4200156;28;19920;-69
2021/12/01 03:13:11;;;;;;;;;;;;;;;21.81;42.17;101485.16;4199258;28;19917;-66
2021/12/01 03:15:16;;;;;;;;;;;;;;;21.81;42.55;101481.53;4199969;28;20363;-67
2021/12/01 03:17:17;;;;;;;;;;;;;;;21.80;42.07;101486.25;4199965;28;19962;-68
2021/12/01 03:19:18;;;;;;;;;;;;;;;21.81;42.20;101478.75;4200298;28;20027;-71
2021/12/01 03:21:19;;;;;;;;;;;;;;;21.80;42.32;101472.31;4199868;28;19920;-70
2021/12/01 03:23:21;;;;;;;;;;;;;;;21.80;42.40;101475.09;4199330;28;19916;-67
2021/12/01 03:25:22;;;;;;;;;;;;;;;21.79;42.37;101481.78;4199493;28;20354;-62
2021/12/01 03:27:23;;;;;;;;;;;;;;;21.79;42.12;101481.78;4199137;28;19917;-66
2021/12/01 03:29:24;;;;;;;;;;;;;;;21.78;42.33;101485.69;4199684;28;19916;-68
2021/12/01 03:31:25;;;;;;;;;;;;;;;21.78;42.04;101480.13;4200079;28;19931;-71
2021/12/01 03:33:27;;;;;;;;;;;;;;;21.77;42.19;101484.03;4199554;28;19970;-64
2021/12/01 03:35:28;;;;;;;;;;;;;;;21.77;42.27;101472.88;4199657;28;19916;-66
2021/12/01 03:37:29;;;;;;;;;;;;;;;21.78;41.97;101479.28;4199116;28;19928;-72
2021/12/01 03:39:30;;;;;;;;;;;;;;;21.77;42.21;101484.03;4199554;28;19920;-70
2021/12/01 03:41:34;;;;;;;;;;;;;;;21.76;41.97;101471.22;4199429;28;20004;-69
2021/12/01 03:43:35;;;;;;;;;;;;;;;21.76;42.14;101471.22;4199553;28;20325;-72
2021/12/01 03:45:37;;;;;;;;;;;;;;;21.75;41.84;101480.66;4199841;28;20425;-69
2021/12/01 03:47:38;;;;;;;;;;;;;;;21.76;42.11;101482.38;4199486;28;19942;-63
2021/12/01 03:49:39;;;;;;;;;;;;;;;21.75;41.92;101477.88;4199513;28;19970;-68
2021/12/01 03:51:40;;;;;;;;;;;;;;;21.75;42.05;101477.03;4199297;28;19969;-64
2021/12/01 03:53:41;;;;;;;;;;;;;;;21.74;41.79;101479.00;4199838;28;19939;-70
2021/12/01 03:55:42;;;;;;;;;;;;;;;21.74;42.07;101484.56;4199146;28;19919;-71
2021/12/01 03:57:44;;;;;;;;;;;;;;;21.74;42.12;101481.78;4199265;28;20268;-75
2021/12/01 03:59:45;;;;;;;;;;;;;;;21.74;42.15;101483.72;4199120;28;20371;-71
2021/12/01 04:01:46;;;;;;;;;;;;;;;21.73;42.05;101471.75;4199170;28;20025;-69
2021/12/01 04:03:47;;;;;;;;;;;;;;;21.74;41.69;101478.16;4199422;28;19938;-74
2021/12/01 04:05:48;;;;;;;;;;;;;;;21.74;41.67;101473.41;4199340;28;19923;-70
2021/12/01 04:07:49;;;;;;;;;;;;;;;21.73;41.70;101471.75;4199092;28;19920;-70
2021/12/01 04:09:51;;;;;;;;;;;;;;;21.72;41.59;101472.88;4214932;28;19972;-66
2021/12/01 04:11:52;;;;;;;;;;;;;;;21.73;41.65;101471.75;4229953;27;19919;-70
2021/12/01 04:13:56;;;;;;;;;;;;;;;21.72;41.61;101477.63;4216200;28;19946;-71
2021/12/01 04:15:57;;;;;;;;;;;;;;;21.72;41.63;101463.69;4215461;28;20271;-72
2021/12/01 04:17:58;;;;;;;;;;;;;;;21.73;41.92;101470.91;4226549;28;19926;-70
2021/12/01 04:19:59;;;;;;;;;;;;;;;21.72;41.67;101475.66;4232501;27;19923;-65
2021/12/01 04:22:01;;;;;;;;;;;;;;;21.72;41.85;101475.66;4232583;27;19924;-68
2021/12/01 04:24:02;;;;;;;;;;;;;;;21.73;41.54;101476.50;4231937;28;19915;-65
2021/12/01 04:26:03;;;;;;;;;;;;;;;21.73;41.62;101477.31;4232406;28;19920;-66
2021/12/01 04:28:05;;;;;;;;;;;;;;;21.72;41.46;101475.66;4232235;27;20059;-66
2021/12/01 04:30:07;;;;;;;;;;;;;;;21.72;41.58;101469.25;4231962;28;19920;-67
2021/12/01 04:32:09;;;;;;;;;;;;;;;21.71;41.86;101462.81;4232098;28;20327;-70
2021/12/01 04:34:10;;;;;;;;;;;;;;;21.72;41.59;101466.47;4232061;28;19915;-70
2021/12/01 04:36:11;;;;;;;;;;;;;;;21.71;41.50;101465.59;4231938;28;19945;-69
2021/12/01 04:38:12;;;;;;;;;;;;;;;21.71;41.84;101473.97;4231339;28;19924;-66
2021/12/01 04:40:14;;;;;;;;;;;;;;;21.71;41.50;101473.97;4232236;27;19961;-72
2021/12/01 04:42:16;;;;;;;;;;;;;;;21.72;41.50;101486.81;4232029;28;19961;-78
2021/12/01 04:44:18;;;;;;;;;;;;;;;21.72;41.51;101474.81;4232104;28;19953;-69
2021/12/01 04:46:20;;;;;;;;;;;;;;;21.72;41.42;101475.66;4231977;28;19932;-69
2021/12/01 04:48:21;;;;;;;;;;;;;;;21.73;41.77;101487.63;4229186;27;19992;-73
2021/12/01 04:50:24;;;;;;;;;;;;;;;21.73;41.65;101473.72;4215294;28;20371;-74
2021/12/01 04:52:25;;;;;;;;;;;;;;;21.72;41.37;101481.22;4222302;28;19920;-71
2021/12/01 04:54:27;;;;;;;;;;;;;;;21.72;41.53;101475.66;4216071;28;19932;-70
2021/12/01 04:56:28;;;;;;;;;;;;;;;21.73;41.63;101477.31;4199404;28;20385;-70
2021/12/01 04:58:29;;;;;;;;;;;;;;;21.73;41.66;101482.91;4210257;28;19924;-70
2021/12/01 05:00:34;;;;;;;;;;;;;;;21.72;41.48;101489.59;4201411;28;20378;-70
2021/12/01 05:02:35;;;;;;;;;;;;;;;21.72;41.29;101489.59;4205542;28;19920;-69
2021/12/01 05:04:36;;;;;;;;;;;;;;;21.71;41.55;101476.75;4202550;28;19920;-70
2021/12/01 05:06:38;;;;;;;;;;;;;;;21.71;41.32;101479.53;4206969;28;19966;-71
2021/12/01 05:08:39;;;;;;;;;;;;;;;21.70;41.20;101500.16;4205734;28;19920;-70
2021/12/01 05:10:43;;;;;;;;;;;;;;;21.71;41.48;101485.09;4202461;28;19928;-70
2021/12/01 05:12:44;;;;;;;;;;;;;;;21.71;41.50;101506.56;4199204;28;19974;-70
2021/12/01 05:14:45;;;;;;;;;;;;;;;21.72;41.51;101491.53;4201054;28;19920;-70
2021/12/01 05:16:46;;;;;;;;;;;;;;;21.72;41.37;101509.09;4214409;28;19920;-69
2021/12/01 05:18:47;;;;;;;;;;;;;;;21.73;41.35;101502.41;4205117;28;19925;-69
2021/12/01 05:20:48;;;;;;;;;;;;;;;21.74;41.33;101495.72;4208472;28;19970;-70
2021/12/01 05:22:52;;;;;;;;;;;;;;;21.75;41.46;101518.81;4198511;28;19921;-70
2021/12/01 05:24:53;;;;;;;;;;;;;;;21.73;41.46;101544.19;4199406;28;19928;-69
2021/12/01 05:26:57;;;;;;;;;;;;;;;21.71;41.33;101518.53;4201311;28;20346;-70
2021/12/01 05:28:58;;;;;;;;;;;;;;;21.68;41.43;101505.16;4198814;28;20357;-68
2021/12/01 05:30:59;;;;;;;;;;;;;;;21.66;41.25;101517.69;4202860;28;19920;-68
2021/12/01 05:33:05;;;;;;;;;;;;;;;21.64;41.49;101539.41;4198391;28;19924;-69
2021/12/01 05:35:07;;;;;;;;;;;;;;;21.61;41.67;101557.47;4207739;28;20394;-69
2021/12/01 05:37:08;;;;;;;;;;;;;;;21.59;41.75;101531.88;4212019;28;19920;-69
2021/12/01 05:39:09;;;;;;;;;;;;;;;21.57;41.67;101534.91;4198036;28;19921;-69
2021/12/01 05:41:10;;;;;;;;;;;;;;;21.56;41.86;101543.53;4210817;28;19946;-69
2021/12/01 05:43:11;;;;;;;;;;;;;;;21.58;41.94;101552.47;4205512;28;20102;-71
2021/12/01 05:45:12;;;;;;;;;;;;;;;21.57;41.82;101556.34;4198075;28;20372;-68
2021/12/01 05:47:13;;;;;;;;;;;;;;;21.60;41.78;101561.38;4198021;28;19916;-69
2021/12/01 05:49:14;;;;;;;;;;;;;;;21.62;42.11;101561.94;4202476;28;19978;-70
2021/12/01 05:51:15;;;;;;;;;;;;;;;21.64;42.22;101567.25;4197989;28;19920;-69
2021/12/01 05:53:16;;;;;;;;;;;;;;;21.64;42.20;101562.53;4198255;28;19926;-70
2021/12/01 05:55:17;;;;;;;;;;;;;;;21.65;42.13;101547.47;4199127;28;19962;-69
2021/12/01 05:57:18;;;;;;;;;;;;;;;21.67;41.93;101553.63;4197401;28;20425;-69
2021/12/01 05:59:19;;;;;;;;;;;;;;;21.69;41.95;101564.50;4212498;28;20328;-69
2021/12/01 06:01:20;;;;;;;;;;;;;;;21.70;42.04;101561.44;4200148;28;19928;-68
2021/12/01 06:03:24;;;;;;;;;;;;;;;21.72;42.07;101575.09;4213254;28;20355;-69
2021/12/01 06:05:25;;;;;;;;;;;;;;;21.73;42.16;101577.59;4210505;28;19920;-69
2021/12/01 06:07:26;;;;;;;;;;;;;;;21.75;41.90;101580.94;4206436;28;19958;-69
2021/12/01 06:09:27;;;;;;;;;;;;;;;21.76;42.19;101593.78;4198014;28;19921;-69
2021/12/01 06:11:28;;;;;;;;;;;;;;;21.78;42.17;101604.66;4197762;28;20294;-68
2021/12/01 06:13:30;;;;;;;;;;;;;;;21.78;41.89;101611.06;4199810;28;20329;-69
2021/12/01 06:15:31;;;;;;;;;;;;;;;21.79;41.84;101600.75;4217377;28;19924;-69
2021/12/01 06:17:33;;;;;;;;;;;;;;;21.80;42.26;101594.91;4216931;28;20260;-69
2021/12/01 06:19:34;;;;;;;;;;;;;;;21.80;41.86;101594.91;4209342;28;19924;-70
2021/12/01 06:21:35;;;;;;;;;;;;;;;21.82;41.86;101603.00;4205964;28;20456;-69
2021/12/01 06:23:39;;;;;;;;;;;;;;;21.82;41.97;101606.63;4216946;28;19950;-70
2021/12/01 06:25:40;;;;;;;;;;;;;;;21.83;41.82;101602.72;4205624;28;19916;-70
2021/12/01 06:27:42;;;;;;;;;;;;;;;21.86;41.79;101608.88;4200494;28;19925;-69
2021/12/01 06:29:43;;;;;;;;;;;;;;;21.86;42.08;101603.31;4202658;28;19917;-70
2021/12/01 06:31:44;;;;;;;;;;;;;;;21.86;42.04;101608.88;4212634;28;19963;-70
2021/12/01 06:33:45;;;;;;;;;;;;;;;21.87;41.94;101607.75;4210402;28;21328;-69
2021/12/01 06:35:49;;;;;;;;;;;;;;;21.87;41.84;101608.59;4216905;28;19917;-70
2021/12/01 06:37:50;;;;;;;;;;;;;;;21.88;41.78;101617.78;4212682;28;20363;-71
2021/12/01 06:39:51;;;;;;;;;;;;;;;21.88;41.66;101610.28;4200526;28;19917;-70
2021/12/01 06:41:54;;;;;;;;;;;;;;;21.88;41.65;101615.00;4200041;28;20381;-70
2021/12/01 06:43:55;;;;;;;;;;;;;;;21.88;41.68;101620.59;4201370;28;20388;-69
2021/12/01 06:45:56;;;;;;;;;;;;;;;21.88;41.72;101628.94;4213049;28;19985;-70
2021/12/01 06:47:57;;;;;;;;;;;;;;;21.83;41.93;101621.41;4204689;28;20290;-71
2021/12/01 06:49:59;;;;;;;;;;;;;;;21.89;41.67;101627.81;4200258;28;19970;-70
2021/12/01 06:52:00;;;;;;;;;;;;;;;21.89;41.65;101637.00;4202827;28;19985;-70
2021/12/01 06:54:04;;;;;;;;;;;;;;;21.89;41.56;101641.75;4216524;28;19973;-70
2021/12/01 06:56:06;;;;;;;;;;;;;;;21.90;41.82;101643.41;4208147;28;19924;-70
2021/12/01 06:58:07;;;;;;;;;;;;;;;21.90;41.82;101655.44;4210693;28;19935;-70
2021/12/01 07:00:10;;;;;;;;;;;;;;;21.91;41.50;101656.28;4212319;28;19934;-68
2021/12/01 07:02:11;;;;;;;;;;;;;;;21.91;41.94;101657.09;4202856;28;19924;-70
2021/12/01 07:04:14;;;;;;;;;;;;;;;21.90;41.66;101661.00;4215335;28;19927;-70
2021/12/01 07:06:15;;;;;;;;;;;;;;;21.91;41.44;101662.69;4216822;28;19970;-69
2021/12/01 07:08:15;;;;;;;;;;;;;;;21.92;41.78;101672.72;4214470;28;19920;-69
2021/12/01 07:10:16;;;;;;;;;;;;;;;21.93;41.50;101681.91;4204982;28;20030;-69
2021/12/01 07:12:17;;;;;;;;;;;;;;;21.93;41.79;101682.75;4216472;28;20011;-71
2021/12/01 07:14:19;;;;;;;;;;;;;;;21.94;41.46;101686.38;4215792;28;19924;-71
2021/12/01 07:16:19;;;;;;;;;;;;;;;21.96;41.38;101684.16;4214490;28;19924;-69
2021/12/01 07:18:20;;;;;;;;;;;;;;;21.96;41.50;101684.16;4202975;28;19921;-71
2021/12/01 07:20:22;;;;;;;;;;;;;;;21.96;41.40;101687.78;4199730;28;19927;-70
2021/12/01 07:22:23;;;;;;;;;;;;;;;21.97;41.22;101689.44;4203215;28;19973;-72
2021/12/01 07:24:25;;;;;;;;;;;;;;;21.98;41.36;101702.28;4213669;28;19939;-70
2021/12/01 07:26:26;;;;;;;;;;;;;;;21.99;41.46;101697.53;4202218;28;19942;-70
2021/12/01 07:28:27;;;;;;;;;;;;;;;22.00;41.13;101710.38;4199599;28;19920;-69
2021/12/01 07:30:28;;;;;;;;;;;;;;;22.02;41.14;101713.72;4210498;28;19920;-70
2021/12/01 07:32:29;;;;;;;;;;;;;;;22.02;41.28;101708.16;4214508;28;19923;-70
2021/12/01 07:34:30;;;;;;;;;;;;;;;22.03;41.02;101720.97;4216393;28;20022;-70
2021/12/01 07:36:31;;;;;;;;;;;;;;;22.04;41.05;101722.69;4216198;28;19917;-70
2021/12/01 07:38:32;;;;;;;;;;;;;;;22.05;41.39;101732.72;4204884;28;19924;-70
2021/12/01 07:40:33;;;;;;;;;;;;;;;22.06;41.27;101734.38;4200134;28;19970;-70
2021/12/01 07:42:34;;;;;;;;;;;;;;;22.07;40.99;101738.84;4199550;28;19916;-71
2021/12/01 07:44:35;;;;;;;;;;;;;;;22.08;41.32;101734.94;4216248;28;20252;-70
2021/12/01 07:46:36;;;;;;;;;;;;;;;22.08;40.98;101740.50;4205412;28;19924;-70
2021/12/01 07:48:40;;;;;;;;;;;;;;;22.09;40.87;101736.63;4199484;28;19920;-70
2021/12/01 07:50:41;;;;;;;;;;;;;;;22.08;41.10;101732.16;4201237;28;20298;-70
2021/12/01 07:52:42;;;;;;;;;;;;;;;22.10;41.21;101743.88;4216061;28;19950;-69
2021/12/01 07:54:43;;;;;;;;;;;;;;;22.10;41.14;101738.31;4201725;28;19944;-70
2021/12/01 07:56:45;;;;;;;;;;;;;;;22.11;41.09;101739.16;4213269;28;19916;-70
2021/12/01 07:58:46;;;;;;;;;;;;;;;22.11;40.86;101742.75;4199301;28;19921;-69
2021/12/01 08:00:47;;;;;;;;;;;;;;;22.11;41.14;101744.72;4203475;28;20341;-68
2021/12/01 08:02:48;;;;;;;;;;;;;;;22.12;41.01;101750.03;4215032;28;19924;-69
2021/12/01 08:04:49;;;;;;;;;;;;;;;22.14;41.01;101759.00;4201182;28;19924;-70
2021/12/01 08:06:50;;;;;;;;;;;;;;;22.15;41.10;101760.66;4212506;28;19924;-71
2021/12/01 08:08:51;;;;;;;;;;;;;;;22.16;40.66;101762.34;4199318;28;19985;-70
2021/12/01 08:10:52;;;;;;;;;;;;;;;22.16;40.90;101764.28;4199901;28;19925;-70
2021/12/01 08:12:53;;;;;;;;;;;;;;;22.16;40.77;101770.69;4199488;28;20375;-69
2021/12/01 08:14:55;;;;;;;;;;;;;;;22.19;40.72;101783.28;4199075;28;19916;-70
2021/12/01 08:16:56;;;;;;;;;;;;;;;22.19;40.89;101780.50;4210391;28;20399;-69
2021/12/01 08:18:57;;;;;;;;;;;;;;;22.19;40.56;101781.31;4206345;28;19927;-70
2021/12/01 08:20:57;;;;;;;;;;;;;;;22.20;40.61;101791.34;4206230;28;20283;-69
2021/12/01 08:22:59;;;;;;;;;;;;;;;22.20;40.93;101794.16;4214913;28;19920;-69
2021/12/01 08:25:00;;;;;;;;;;;;;;;22.20;40.67;101799.72;4198747;28;19950;-71
2021/12/01 08:27:01;;;;;;;;;;;;;;;22.20;40.61;101802.50;4204585;28;19966;-70
2021/12/01 08:29:02;;;;;;;;;;;;;;;22.20;40.66;101804.47;4215499;28;19919;-69
2021/12/01 08:31:03;;;;;;;;;;;;;;;22.18;40.82;101810.31;4215485;28;19924;-69
2021/12/01 08:33:05;;;;;;;;;;;;;;;22.16;40.71;101815.31;4200365;28;19920;-69
2021/12/01 08:35:08;;;;;;;;;;;;;;;22.15;40.66;101808.06;4208592;28;19950;-68
2021/12/01 08:37:10;;;;;;;;;;;;;;;22.15;40.69;101813.63;4214038;28;19969;-70
2021/12/01 08:39:11;;;;;;;;;;;;;;;22.15;40.75;101810.84;4213641;28;20489;-69
2021/12/01 08:41:12;;;;;;;;;;;;;;;22.14;40.73;101816.69;4198360;28;19978;-69
2021/12/01 08:43:16;;;;;;;;;;;;;;;22.14;41.09;101806.38;4215312;28;19961;-69
2021/12/01 08:45:17;;;;;;;;;;;;;;;22.15;40.79;101812.78;4202863;28;19954;-71
2021/12/01 08:47:20;;;;;;;;;;;;;;;22.14;41.19;101816.69;4205463;28;20325;-70
2021/12/01 08:49:24;;;;;;;;;;;;;;;22.12;40.88;101825.31;4214763;28;20329;-69
2021/12/01 08:51:26;;;;;;;;;;;;;;;22.11;40.85;101829.19;4212789;28;19962;-70
2021/12/01 08:53:27;;;;;;;;;;;;;;;22.09;41.01;101831.41;4197966;28;19920;-69
2021/12/01 08:55:28;;;;;;;;;;;;;;;22.10;40.72;101829.47;4199655;28;19921;-69
2021/12/01 08:57:32;;;;;;;;;;;;;;;22.08;40.73;101835.28;4202368;28;20402;-69
2021/12/01 08:59:34;;;;;;;;;;;;;;;22.07;41.07;101839.19;4213810;28;19961;-70
2021/12/01 09:01:35;;;;;;;;;;;;;;;22.05;40.88;101841.41;4202895;28;20439;-70
2021/12/01 09:03:39;;;;;;;;;;;;;;;22.05;41.18;101852.56;4204884;28;19920;-70
2021/12/01 09:05:40;;;;;;;;;;;;;;;22.05;40.77;101852.56;4212243;28;20367;-70
2021/12/01 09:07:44;;;;;;;;;;;;;;;22.03;40.91;101838.03;4212921;28;19917;-69
2021/12/01 09:09:45;;;;;;;;;;;;;;;22.02;40.98;101841.94;4198502;28;19917;-70
2021/12/01 09:11:47;;;;;;;;;;;;;;;22.02;40.98;101847.50;4215145;28;20436;-70
2021/12/01 09:13:48;;;;;;;;;;;;;;;22.00;41.25;101846.94;4204370;28;20397;-71
2021/12/01 09:15:49;;;;;;;;;;;;;;;22.00;40.92;101849.72;4198219;28;19982;-69
2021/12/01 09:17:50;;;;;;;;;;;;;;;21.98;40.94;101858.34;4198367;28;19916;-70
2021/12/01 09:19:52;;;;;;;;;;;;;;;21.98;41.04;101851.94;4198252;28;19962;-70
2021/12/01 09:21:53;;;;;;;;;;;;;;;21.97;41.00;101850.25;4214601;28;19920;-68
2021/12/01 09:23:54;;;;;;;;;;;;;;;21.97;41.02;101861.41;4207763;28;20421;-69
2021/12/01 09:25:55;;;;;;;;;;;;;;;21.97;41.22;101861.41;4196961;28;19970;-68
2021/12/01 09:27:57;;;;;;;;;;;;;;;21.96;41.32;101871.72;4198096;28;19997;-69
2021/12/01 09:29:58;;;;;;;;;;;;;;;21.95;41.26;101875.63;4198053;28;19986;-69
2021/12/01 09:31:59;;;;;;;;;;;;;;;21.96;40.94;101876.44;4197770;28;20441;-69
2021/12/01 09:34:00;;;;;;;;;;;;;;;21.96;41.12;101882.88;4207635;28;19969;-71
2021/12/01 09:36:02;;;;;;;;;;;;;;;21.96;41.21;101876.44;4214781;28;20355;-71
2021/12/01 09:38:03;;;;;;;;;;;;;;;21.95;40.91;101878.41;4213633;28;19954;-69
2021/12/01 09:40:18;;;;;;;;;;;;;;;21.95;40.91;101885.91;4214560;28;19962;-69
2021/12/01 09:42:20;;;;;;;;;;;;;;;21.95;40.92;101885.91;4214184;28;19969;-69
2021/12/01 09:44:21;;;;;;;;;;;;;;;21.94;40.84;101881.44;4214284;28;19916;-70
2021/12/01 09:46:22;;;;;;;;;;;;;;;21.94;40.91;101892.56;4214813;28;19920;-68
2021/12/01 09:48:24;;;;;;;;;;;;;;;21.93;40.96;101902.06;4216626;28;19982;-69
2021/12/01 09:50:25;;;;;;;;;;;;;;;21.93;41.04;101894.53;4217872;28;20367;-68
2021/12/01 09:52:26;;;;;;;;;;;;;;;21.93;40.95;101896.47;4204207;28;19921;-70
2021/12/01 09:54:27;;;;;;;;;;;;;;;21.92;41.15;101900.38;4201799;28;19920;-71
2021/12/01 09:56:29;;;;;;;;;;;;;;;21.92;41.20;101897.59;4217441;28;19923;-71
2021/12/01 09:58:31;;;;;;;;;;;;;;;21.61;41.07;101849.09;4217935;28;19916;-69
2021/12/01 10:00:34;;;;;;;;;;;;;;;21.90;40.96;101894.22;4208501;28;19928;-73
2021/12/01 10:02:37;;;;;;;;;;;;;;;21.90;40.97;101894.22;4200838;28;19916;-69
2021/12/01 10:04:38;;;;;;;;;;;;;;;21.90;41.08;101889.50;4201742;28;19958;-69
2021/12/01 10:06:39;;;;;;;;;;;;;;;21.88;41.05;101894.47;4216896;28;20290;-68
2021/12/01 10:08:46;;;;;;;;;;;;;;;21.88;41.07;101891.69;4217637;28;19921;-70
2021/12/01 10:10:47;;;;;;;;;;;;;;;21.89;40.79;101903.69;4211687;28;19973;-70
2021/12/01 10:12:51;;;;;;;;;;;;;;;21.89;40.80;101909.25;4217645;28;20027;-69
2021/12/01 10:14:52;;;;;;;;;;;;;;;21.88;40.99;101907.56;4215550;28;19916;-69
2021/12/01 10:16:54;;;;;;;;;;;;;;;21.86;40.88;101916.22;4201006;28;19929;-70
2021/12/01 10:18:57;;;;;;;;;;;;;;;21.85;41.02;101913.66;4201453;28;20437;-70
2021/12/01 10:21:03;;;;;;;;;;;;;;;21.85;40.93;101922.03;4210964;28;19963;-70
2021/12/01 10:23:09;;;;;;;;;;;;;;;21.82;41.11;101924.25;4217447;28;19961;-69
2021/12/01 10:25:30;;;;;;;;;;;;;;;21.82;40.86;101921.47;4212843;28;19917;-71
2021/12/01 10:27:38;;;;;;;;;;;;;;;21.81;41.02;101922.56;4199944;28;19964;-71
2021/12/01 10:29:41;;;;;;;;;;;;;;;21.80;40.91;101934.81;4200746;28;19978;-70